Jupiter, FL (33458)

9:31 PM EDT on May 24, 2017 (GMT -0400)
JUPITER RIVER | | Change Station
Active Advisory: Severe Thunderstorm Watch

Elev 14 ft 26.93 °N, 80.11 °W | Updated 3 seconds ago

Rain
Rain
70.4 °F
Feels Like 70.4 °F
N
0.0
Wind Variable Wind from SSW
Gusts 11.0 mph

Today
High -- | Low -- °F
--% Chance of Precip.
Yesterday
High -- | Low -- °F
Precip. -- in
Pressure 29.79 in
Visibility 4.0 miles
Clouds Scattered Clouds 2000 ft
Mostly Cloudy 4000 ft
Dew Point 68 °F
Humidity 93%
Rainfall 0.36 in
Snow Depth Not available.
6:28 AM 8:06 PM
Waning Crescent, 1% visible
METAR KSUA 242347Z 22014G20KT 4SM -RA SCT020 BKN040 23/23 A2979
Pressure 29.79 in
Visibility 4.0 miles
Clouds Scattered Clouds 2000 ft
Mostly Cloudy 4000 ft
Dew Point 68 °F
Humidity 93%
Rainfall 0.36 in
Snow Depth Not available.
6:28 AM 8:06 PM
Waning Crescent, 1% visible
METAR KSUA 242347Z 22014G20KT 4SM -RA SCT020 BKN040 23/23 A2979

Get Your Daily Forecast Email!

Thanks for signing up!

Be on the lookout for a verification email in your inbox.

You'll start receiving severe weather alerts in your inbox..

×

10-Day Weather Forecast

Almanac

Astronomy

May. 24, 2017 Rise Set
Actual Time
Civil Twilight
Nautical Twilight
Astronomical Twilight
Moon
Length of Visible Light
Length of Day
Tomorrow will be .
, % of the Moon is Illuminated

Today's Extremes

State Highs State Lows

Community

WunderPhotos

Category 6

Welcome to Category 6. This is the collective home for Weather Underground's featured writeups by Dr. Jeff Masters (right), Bob Henson (left), Chris Burt, and other regular contributors.

Nearby

Air Quality

  Air Quality AQ Index Pollutant
Not available.

Snow Depth

Station Depth Elevation

Earthquake Activity

City Distance Mag. Time & Date
Minimum magnitude displayed is 2.5.

Coastal Water Temperatures

Place Temperature

Stations

Nearby Weather Stations

Station Location Temp. Windchill Dew Point Humidity Wind Precip. Elev Updated Type
                   

Watches & Warnings

Severe Thunderstorm Watch
Issued: 9:24 PM EDT May. 24, 2017 – National Weather Service

Severe Thunderstorm Watch 265 remains in effect until 1100 PM EDT
for the following locations


FL
. Florida counties included are

Broward Miami-Dade Monroe
Palm Beach